• Join FlightAware (Why Join?)
  • Login
  • US Flag 
01:05PM EST


 

Airport Tracker/Info


-or-


 

Live Flight TrackerFlight Track Log ✈ DCM4880 ✈ 25-Jun-2013 ✈ KDET - KBIV

Flight Track Log - Related Links

Times and Time Zones

All times are in EDT time to prevent confusion due to time zone crossing. See the DCM4880 flight status page for this flight to view local times or setup timezone preferences in your user account.

Time Position Orientation Groundspeed Altitude Reporting Facility
EDT Latitude Longitude Course Direction KTS MPH feet Rate Location/Type
05:00PM 42.3667 -82.9664 143° Southeast 211 243 3,900  Level Cleveland Center
05:01PM 42.3117 -82.9053 141° Southeast 294 338 4,100 1,140 Climbing Cleveland Center
05:02PM 42.2311 -82.8631 159° South 274 315 6,300 2,160 Climbing Cleveland Center
05:03PM 42.1706 -82.8722 186° South 271 312 8,600 2,460 Climbing Cleveland Center
05:04PM 42.1772 -82.9508 277° West 265 305 10,800 2,160 Climbing Cleveland Center
05:05PM 42.2019 -83.0639 286° West 318 366 12,800 1,140 Climbing Cleveland Center
05:06PM 42.2225 -83.1739 284° West 333 383 13,100 1,080 Climbing Cleveland Center
05:07PM 42.2489 -83.3014 286° West 328 377 15,000 2,220 Climbing Cleveland Center
05:09PM 42.2967 -83.5533 284° West 340 391 19,800 1,680 Climbing Cleveland Center
05:10PM 42.3225 -83.6864 285° West 356 410 20,100 60 Climbing Cleveland Center
05:11PM 42.3478 -83.8225 284° West 367 422 20,000 -60 Descending Cleveland Center
05:12PM 42.3711 -83.9531 284° West 367 422 20,000  Level Cleveland Center
05:13PM 42.4156 -84.0764 296° West 358 412 20,000  Level Cleveland Center
05:14PM 42.4939 -84.1681 319° Northwest 363 418 20,000  Level Cleveland Center
05:15PM 42.5700 -84.2656 317° Northwest 363 418 20,000  Level Cleveland Center
05:16PM 42.6014 -84.3944 288° West 352 405 20,000  Level Cleveland Center
05:17PM 42.6156 -84.5308 278° West 357 411 20,000  Level Cleveland Center
05:18PM 42.6275 -84.6669 277° West 363 418 20,000  Level Cleveland Center
05:19PM 42.6228 -84.8350 268° West 378 435 20,000  Level Chicago Center
05:20PM 42.5672 -84.9519 237° Southwest 381 438 20,000  Level Chicago Center
05:21PM 42.5844 -85.0894 280° West 376 433 20,000  Level Chicago Center
05:22PM 42.6128 -85.2242 286° West 371 427 20,000  Level Chicago Center
05:23PM 42.6458 -85.3872 285° West 374 430 20,000 -1,500 Level Chicago Center
05:24PM 42.6708 -85.5167 285° West 362 417 16,900 -3,660 Descending Chicago Center
05:25PM 42.6956 -85.6375 286° West 342 394 12,500 -3,300 Descending Chicago Center
05:26PM 42.7164 -85.7456 285° West 310 357 10,100 -3,120 Descending Chicago Center
05:27PM 42.7378 -85.8472 286° West 282 325 6,100 -3,480 Descending Chicago Center
05:28PM 42.7583 -85.9503 285° West 281 323 3,000 -2,160 Descending Chicago Center
05:29PM 42.7531 -86.0322 265° West 236 272 1,600 -1,380 Descending Chicago Center